SEQU weather

CLOSED Mariscal Sucre International Airport
Quito, Pichincha Province, Ecuador

Public forecast

Using degrees Celsius for public forecast. Weather courtesy of forecast.io.

METAR (pilot weather report)

Report is more than 6 hours old.

Retrieved 2015/06/25 02:00 UTC (4 years ago):

SEQU 250200Z 30007KT 9999 FEW036 19/05 Q1025

TAF (pilot weather forecast)

Forecast is more than 12 hours old.

Retrieved 2019/04/03 18:57 UTC (5 months ago):

TAF SEQU 031630Z 0318/0418 36010KT 9999 BKN030 SCT100 TEMPO 0320/0323 16008KT TSRA SCT026CB BKN030TCU BKN100 FM040000 03004KT 9999 SCT030 BKN100 TEMPO 0409/0412 00000KT 2000 BR SCT005 BKN020 BKN100 FM041200 VRB03KT 9999 SCT030 SCT100 TX21/0319Z TN12/0410Z